sensor_id;sensor_type;location;lat;lon;timestamp;temperature;humidity
78516;SHT31;67815;51.990;5.688;2023-04-16T00:00:39;11.4;72.7
78516;SHT31;67815;51.990;5.688;2023-04-16T00:03:09;11.4;72.8
78516;SHT31;67815;51.990;5.688;2023-04-16T00:05:38;11.3;72.9
78516;SHT31;67815;51.990;5.688;2023-04-16T00:08:08;11.3;73.1
78516;SHT31;67815;51.990;5.688;2023-04-16T00:10:38;11.3;73.2
78516;SHT31;67815;51.990;5.688;2023-04-16T00:13:07;11.3;73.4
78516;SHT31;67815;51.990;5.688;2023-04-16T00:15:37;11.3;73.6
78516;SHT31;67815;51.990;5.688;2023-04-16T00:18:06;11.3;73.7
78516;SHT31;67815;51.990;5.688;2023-04-16T00:20:36;11.2;73.9
78516;SHT31;67815;51.990;5.688;2023-04-16T00:23:05;11.2;74.0
78516;SHT31;67815;51.990;5.688;2023-04-16T00:25:35;11.2;74.1
78516;SHT31;67815;51.990;5.688;2023-04-16T00:28:05;11.2;74.2
78516;SHT31;67815;51.990;5.688;2023-04-16T00:30:35;11.2;74.3
78516;SHT31;67815;51.990;5.688;2023-04-16T00:33:06;11.2;74.5
78516;SHT31;67815;51.990;5.688;2023-04-16T00:35:36;11.2;74.5
78516;SHT31;67815;51.990;5.688;2023-04-16T00:38:06;11.2;74.4
78516;SHT31;67815;51.990;5.688;2023-04-16T00:40:35;11.2;74.6
78516;SHT31;67815;51.990;5.688;2023-04-16T00:43:05;11.2;74.6
78516;SHT31;67815;51.990;5.688;2023-04-16T00:45:35;11.2;74.5
78516;SHT31;67815;51.990;5.688;2023-04-16T00:48:05;11.3;74.6
78516;SHT31;67815;51.990;5.688;2023-04-16T00:50:35;11.3;74.6
78516;SHT31;67815;51.990;5.688;2023-04-16T00:53:07;11.3;74.5
78516;SHT31;67815;51.990;5.688;2023-04-16T00:55:38;11.3;74.6
78516;SHT31;67815;51.990;5.688;2023-04-16T00:58:08;11.3;74.6
78516;SHT31;67815;51.990;5.688;2023-04-16T01:00:37;11.3;74.7
78516;SHT31;67815;51.990;5.688;2023-04-16T01:03:08;11.3;74.7
78516;SHT31;67815;51.990;5.688;2023-04-16T01:05:38;11.3;74.8
78516;SHT31;67815;51.990;5.688;2023-04-16T01:08:16;11.3;74.8
78516;SHT31;67815;51.990;5.688;2023-04-16T01:10:46;11.3;74.9
78516;SHT31;67815;51.990;5.688;2023-04-16T01:13:16;11.3;74.8
78516;SHT31;67815;51.990;5.688;2023-04-16T01:15:45;11.3;74.9
78516;SHT31;67815;51.990;5.688;2023-04-16T01:18:17;11.2;75.0
78516;SHT31;67815;51.990;5.688;2023-04-16T01:20:47;11.2;75.0
78516;SHT31;67815;51.990;5.688;2023-04-16T01:23:18;11.2;75.0
78516;SHT31;67815;51.990;5.688;2023-04-16T01:25:48;11.2;75.1
78516;SHT31;67815;51.990;5.688;2023-04-16T01:28:18;11.3;75.1
78516;SHT31;67815;51.990;5.688;2023-04-16T01:30:48;11.3;75.1
78516;SHT31;67815;51.990;5.688;2023-04-16T01:33:19;11.3;75.1
78516;SHT31;67815;51.990;5.688;2023-04-16T01:35:49;11.3;75.1
78516;SHT31;67815;51.990;5.688;2023-04-16T01:38:19;11.3;75.1
78516;SHT31;67815;51.990;5.688;2023-04-16T01:40:48;11.3;75.1
78516;SHT31;67815;51.990;5.688;2023-04-16T01:43:18;11.3;75.1
78516;SHT31;67815;51.990;5.688;2023-04-16T01:45:47;11.3;75.2
78516;SHT31;67815;51.990;5.688;2023-04-16T01:48:17;11.2;75.3
78516;SHT31;67815;51.990;5.688;2023-04-16T01:50:46;11.2;75.3
78516;SHT31;67815;51.990;5.688;2023-04-16T01:53:16;11.2;75.4
78516;SHT31;67815;51.990;5.688;2023-04-16T01:55:46;11.2;75.4
78516;SHT31;67815;51.990;5.688;2023-04-16T01:58:16;11.2;75.5
78516;SHT31;67815;51.990;5.688;2023-04-16T02:00:46;11.2;75.4
78516;SHT31;67815;51.990;5.688;2023-04-16T02:03:18;11.3;75.4
78516;SHT31;67815;51.990;5.688;2023-04-16T02:05:50;11.3;75.5
78516;SHT31;67815;51.990;5.688;2023-04-16T02:08:20;11.3;75.5
78516;SHT31;67815;51.990;5.688;2023-04-16T02:10:50;11.3;75.4
78516;SHT31;67815;51.990;5.688;2023-04-16T02:13:19;11.3;75.4
78516;SHT31;67815;51.990;5.688;2023-04-16T02:15:50;11.3;75.4
78516;SHT31;67815;51.990;5.688;2023-04-16T02:18:20;11.3;75.3
78516;SHT31;67815;51.990;5.688;2023-04-16T02:20:51;11.3;75.4
78516;SHT31;67815;51.990;5.688;2023-04-16T02:23:21;11.3;75.4
78516;SHT31;67815;51.990;5.688;2023-04-16T02:25:50;11.3;75.4
78516;SHT31;67815;51.990;5.688;2023-04-16T02:28:20;11.3;75.5
78516;SHT31;67815;51.990;5.688;2023-04-16T02:30:50;11.3;75.5
78516;SHT31;67815;51.990;5.688;2023-04-16T02:33:19;11.3;75.4
78516;SHT31;67815;51.990;5.688;2023-04-16T02:35:52;11.3;75.4
78516;SHT31;67815;51.990;5.688;2023-04-16T02:38:21;11.3;75.2
78516;SHT31;67815;51.990;5.688;2023-04-16T02:40:51;11.3;75.2
78516;SHT31;67815;51.990;5.688;2023-04-16T02:43:21;11.4;75.1
78516;SHT31;67815;51.990;5.688;2023-04-16T02:45:51;11.4;75.1
78516;SHT31;67815;51.990;5.688;2023-04-16T02:48:20;11.4;75.2
78516;SHT31;67815;51.990;5.688;2023-04-16T02:50:50;11.4;75.1
78516;SHT31;67815;51.990;5.688;2023-04-16T02:53:19;11.4;75.1
78516;SHT31;67815;51.990;5.688;2023-04-16T02:55:53;11.4;75.1
78516;SHT31;67815;51.990;5.688;2023-04-16T02:58:24;11.4;74.9
78516;SHT31;67815;51.990;5.688;2023-04-16T03:00:54;11.4;75.0
78516;SHT31;67815;51.990;5.688;2023-04-16T03:03:24;11.4;75.0
78516;SHT31;67815;51.990;5.688;2023-04-16T03:05:55;11.4;75.0
78516;SHT31;67815;51.990;5.688;2023-04-16T03:08:25;11.4;75.1
78516;SHT31;67815;51.990;5.688;2023-04-16T03:10:54;11.4;75.1
78516;SHT31;67815;51.990;5.688;2023-04-16T03:13:24;11.4;75.1
78516;SHT31;67815;51.990;5.688;2023-04-16T03:15:53;11.4;75.1
78516;SHT31;67815;51.990;5.688;2023-04-16T03:18:23;11.4;75.1
78516;SHT31;67815;51.990;5.688;2023-04-16T03:20:53;11.4;75.2
78516;SHT31;67815;51.990;5.688;2023-04-16T03:23:23;11.4;75.3
78516;SHT31;67815;51.990;5.688;2023-04-16T03:25:54;11.4;75.3
78516;SHT31;67815;51.990;5.688;2023-04-16T03:28:24;11.4;75.2
78516;SHT31;67815;51.990;5.688;2023-04-16T03:30:54;11.4;75.1
78516;SHT31;67815;51.990;5.688;2023-04-16T03:33:23;11.4;75.1
78516;SHT31;67815;51.990;5.688;2023-04-16T03:35:57;11.4;75.2
78516;SHT31;67815;51.990;5.688;2023-04-16T03:38:26;11.4;75.1
78516;SHT31;67815;51.990;5.688;2023-04-16T03:40:56;11.4;75.1
78516;SHT31;67815;51.990;5.688;2023-04-16T03:43:25;11.4;75.1
78516;SHT31;67815;51.990;5.688;2023-04-16T03:45:55;11.4;75.1
78516;SHT31;67815;51.990;5.688;2023-04-16T03:48:24;11.4;75.0
78516;SHT31;67815;51.990;5.688;2023-04-16T03:50:54;11.4;75.1
78516;SHT31;67815;51.990;5.688;2023-04-16T03:53:23;11.4;75.2
78516;SHT31;67815;51.990;5.688;2023-04-16T03:55:53;11.4;75.3
78516;SHT31;67815;51.990;5.688;2023-04-16T03:58:23;11.4;75.2
78516;SHT31;67815;51.990;5.688;2023-04-16T04:00:54;11.4;75.3
78516;SHT31;67815;51.990;5.688;2023-04-16T04:03:23;11.4;75.3
78516;SHT31;67815;51.990;5.688;2023-04-16T04:05:53;11.4;75.3
78516;SHT31;67815;51.990;5.688;2023-04-16T04:08:22;11.4;75.3
78516;SHT31;67815;51.990;5.688;2023-04-16T04:10:52;11.4;75.3
78516;SHT31;67815;51.990;5.688;2023-04-16T04:13:23;11.4;75.3
78516;SHT31;67815;51.990;5.688;2023-04-16T04:15:55;11.4;75.2
78516;SHT31;67815;51.990;5.688;2023-04-16T04:18:24;11.4;75.2
78516;SHT31;67815;51.990;5.688;2023-04-16T04:20:54;11.4;75.2
78516;SHT31;67815;51.990;5.688;2023-04-16T04:23:24;11.4;75.2
78516;SHT31;67815;51.990;5.688;2023-04-16T04:25:53;11.3;75.3
78516;SHT31;67815;51.990;5.688;2023-04-16T04:28:23;11.3;75.3
78516;SHT31;67815;51.990;5.688;2023-04-16T04:30:52;11.3;75.5
78516;SHT31;67815;51.990;5.688;2023-04-16T04:33:22;11.3;75.5
78516;SHT31;67815;51.990;5.688;2023-04-16T04:35:52;11.3;75.5
78516;SHT31;67815;51.990;5.688;2023-04-16T04:38:22;11.3;75.6
78516;SHT31;67815;51.990;5.688;2023-04-16T04:40:52;11.3;75.6
78516;SHT31;67815;51.990;5.688;2023-04-16T04:43:22;11.3;75.6
78516;SHT31;67815;51.990;5.688;2023-04-16T04:45:54;11.3;75.7
78516;SHT31;67815;51.990;5.688;2023-04-16T04:48:23;11.2;75.7
78516;SHT31;67815;51.990;5.688;2023-04-16T04:50:54;11.2;75.8
78516;SHT31;67815;51.990;5.688;2023-04-16T04:53:23;11.2;75.7
78516;SHT31;67815;51.990;5.688;2023-04-16T04:55:55;11.2;75.7
78516;SHT31;67815;51.990;5.688;2023-04-16T04:58:24;11.2;75.8
78516;SHT31;67815;51.990;5.688;2023-04-16T05:00:54;11.2;75.8
78516;SHT31;67815;51.990;5.688;2023-04-16T05:03:23;11.2;75.9
78516;SHT31;67815;51.990;5.688;2023-04-16T05:05:53;11.1;76.0
78516;SHT31;67815;51.990;5.688;2023-04-16T05:08:23;11.1;76.2
78516;SHT31;67815;51.990;5.688;2023-04-16T05:10:52;11.1;76.2
78516;SHT31;67815;51.990;5.688;2023-04-16T05:13:23;11.1;76.2
78516;SHT31;67815;51.990;5.688;2023-04-16T05:15:52;11.1;76.3
78516;SHT31;67815;51.990;5.688;2023-04-16T05:18:22;11.1;76.3
78516;SHT31;67815;51.990;5.688;2023-04-16T05:20:51;11.1;76.3
78516;SHT31;67815;51.990;5.688;2023-04-16T05:23:22;11.2;76.2
78516;SHT31;67815;51.990;5.688;2023-04-16T05:25:52;11.2;76.2
78516;SHT31;67815;51.990;5.688;2023-04-16T05:28:21;11.2;76.1
78516;SHT31;67815;51.990;5.688;2023-04-16T05:30:51;11.2;76.1
78516;SHT31;67815;51.990;5.688;2023-04-16T05:33:21;11.2;76.1
78516;SHT31;67815;51.990;5.688;2023-04-16T05:35:51;11.2;76.2
78516;SHT31;67815;51.990;5.688;2023-04-16T05:38:20;11.2;76.2
78516;SHT31;67815;51.990;5.688;2023-04-16T05:40:50;11.2;76.3
78516;SHT31;67815;51.990;5.688;2023-04-16T05:43:19;11.2;76.3
78516;SHT31;67815;51.990;5.688;2023-04-16T05:45:49;11.2;76.3
78516;SHT31;67815;51.990;5.688;2023-04-16T05:48:18;11.2;76.3
78516;SHT31;67815;51.990;5.688;2023-04-16T05:50:48;11.2;76.3
78516;SHT31;67815;51.990;5.688;2023-04-16T05:53:18;11.2;76.3
78516;SHT31;67815;51.990;5.688;2023-04-16T05:55:47;11.2;76.2
78516;SHT31;67815;51.990;5.688;2023-04-16T05:58:17;11.3;76.1
78516;SHT31;67815;51.990;5.688;2023-04-16T06:00:46;11.3;76.0
78516;SHT31;67815;51.990;5.688;2023-04-16T06:03:16;11.3;76.0
78516;SHT31;67815;51.990;5.688;2023-04-16T06:05:45;11.3;75.9
78516;SHT31;67815;51.990;5.688;2023-04-16T06:08:15;11.3;76.0
78516;SHT31;67815;51.990;5.688;2023-04-16T06:10:45;11.3;75.9
78516;SHT31;67815;51.990;5.688;2023-04-16T06:13:17;11.4;75.9
78516;SHT31;67815;51.990;5.688;2023-04-16T06:15:46;11.4;75.8
78516;SHT31;67815;51.990;5.688;2023-04-16T06:18:16;11.4;75.8
78516;SHT31;67815;51.990;5.688;2023-04-16T06:20:46;11.4;75.8
78516;SHT31;67815;51.990;5.688;2023-04-16T06:23:16;11.4;75.7
78516;SHT31;67815;51.990;5.688;2023-04-16T06:25:47;11.4;75.8
78516;SHT31;67815;51.990;5.688;2023-04-16T06:28:17;11.4;75.8
78516;SHT31;67815;51.990;5.688;2023-04-16T06:30:47;11.4;75.8
78516;SHT31;67815;51.990;5.688;2023-04-16T06:33:17;11.4;75.8
78516;SHT31;67815;51.990;5.688;2023-04-16T06:35:47;11.4;76.0
78516;SHT31;67815;51.990;5.688;2023-04-16T06:38:17;11.4;75.8
78516;SHT31;67815;51.990;5.688;2023-04-16T06:40:47;11.4;75.8
78516;SHT31;67815;51.990;5.688;2023-04-16T06:43:17;11.4;75.7
78516;SHT31;67815;51.990;5.688;2023-04-16T06:45:48;11.4;75.6
78516;SHT31;67815;51.990;5.688;2023-04-16T06:48:17;11.4;75.6
78516;SHT31;67815;51.990;5.688;2023-04-16T06:50:47;11.4;75.7
78516;SHT31;67815;51.990;5.688;2023-04-16T06:53:16;11.4;75.9
78516;SHT31;67815;51.990;5.688;2023-04-16T06:55:46;11.4;75.9
78516;SHT31;67815;51.990;5.688;2023-04-16T06:58:17;11.4;76.0
78516;SHT31;67815;51.990;5.688;2023-04-16T07:00:47;11.4;76.1
78516;SHT31;67815;51.990;5.688;2023-04-16T07:03:17;11.4;75.9
78516;SHT31;67815;51.990;5.688;2023-04-16T07:05:47;11.5;75.8
78516;SHT31;67815;51.990;5.688;2023-04-16T07:08:16;11.5;75.6
78516;SHT31;67815;51.990;5.688;2023-04-16T07:10:46;11.5;75.4
78516;SHT31;67815;51.990;5.688;2023-04-16T07:13:16;11.5;75.3
78516;SHT31;67815;51.990;5.688;2023-04-16T07:15:46;11.6;75.3
78516;SHT31;67815;51.990;5.688;2023-04-16T07:18:16;11.6;75.2
78516;SHT31;67815;51.990;5.688;2023-04-16T07:20:45;11.6;75.3
78516;SHT31;67815;51.990;5.688;2023-04-16T07:23:16;11.6;75.4
78516;SHT31;67815;51.990;5.688;2023-04-16T07:25:45;11.6;75.6
78516;SHT31;67815;51.990;5.688;2023-04-16T07:28:15;11.6;75.6
78516;SHT31;67815;51.990;5.688;2023-04-16T07:30:45;11.6;75.3
78516;SHT31;67815;51.990;5.688;2023-04-16T07:33:14;11.6;75.3
78516;SHT31;67815;51.990;5.688;2023-04-16T07:35:44;11.6;75.3
78516;SHT31;67815;51.990;5.688;2023-04-16T07:38:14;11.6;75.3
78516;SHT31;67815;51.990;5.688;2023-04-16T07:40:44;11.7;75.2
78516;SHT31;67815;51.990;5.688;2023-04-16T07:43:14;11.7;75.2
78516;SHT31;67815;51.990;5.688;2023-04-16T07:45:44;11.7;75.1
78516;SHT31;67815;51.990;5.688;2023-04-16T07:48:14;11.7;75.1
78516;SHT31;67815;51.990;5.688;2023-04-16T07:50:43;11.7;75.1
78516;SHT31;67815;51.990;5.688;2023-04-16T07:53:15;11.7;75.1
78516;SHT31;67815;51.990;5.688;2023-04-16T07:55:44;11.7;75.1
78516;SHT31;67815;51.990;5.688;2023-04-16T07:58:14;11.7;75.1
78516;SHT31;67815;51.990;5.688;2023-04-16T08:00:43;11.7;75.2
78516;SHT31;67815;51.990;5.688;2023-04-16T08:03:13;11.8;75.0
78516;SHT31;67815;51.990;5.688;2023-04-16T08:05:44;11.8;74.9
78516;SHT31;67815;51.990;5.688;2023-04-16T08:08:13;11.8;75.0
78516;SHT31;67815;51.990;5.688;2023-04-16T08:10:43;11.8;74.9
78516;SHT31;67815;51.990;5.688;2023-04-16T08:13:13;11.9;74.8
78516;SHT31;67815;51.990;5.688;2023-04-16T08:15:42;11.9;74.4
78516;SHT31;67815;51.990;5.688;2023-04-16T08:18:12;11.9;74.2
78516;SHT31;67815;51.990;5.688;2023-04-16T08:20:42;11.9;74.1
78516;SHT31;67815;51.990;5.688;2023-04-16T08:23:12;12.0;74.1
78516;SHT31;67815;51.990;5.688;2023-04-16T08:25:41;12.0;74.1
78516;SHT31;67815;51.990;5.688;2023-04-16T08:28:11;12.0;73.8
78516;SHT31;67815;51.990;5.688;2023-04-16T08:30:41;12.0;73.9
78516;SHT31;67815;51.990;5.688;2023-04-16T08:33:12;12.0;73.7
78516;SHT31;67815;51.990;5.688;2023-04-16T08:35:42;12.0;73.6
78516;SHT31;67815;51.990;5.688;2023-04-16T08:38:12;12.1;73.5
78516;SHT31;67815;51.990;5.688;2023-04-16T08:40:42;12.1;73.1
78516;SHT31;67815;51.990;5.688;2023-04-16T08:43:15;12.1;73.0
78516;SHT31;67815;51.990;5.688;2023-04-16T08:45:46;12.1;73.3
78516;SHT31;67815;51.990;5.688;2023-04-16T08:48:19;12.1;73.4
78516;SHT31;67815;51.990;5.688;2023-04-16T08:50:51;12.1;73.4
78516;SHT31;67815;51.990;5.688;2023-04-16T08:53:32;12.1;73.1
78516;SHT31;67815;51.990;5.688;2023-04-16T08:56:04;12.1;73.4
78516;SHT31;67815;51.990;5.688;2023-04-16T08:58:38;12.1;73.6
78516;SHT31;67815;51.990;5.688;2023-04-16T09:01:10;12.2;73.0
78516;SHT31;67815;51.990;5.688;2023-04-16T09:03:40;12.2;72.7
78516;SHT31;67815;51.990;5.688;2023-04-16T09:06:11;12.2;72.9
78516;SHT31;67815;51.990;5.688;2023-04-16T09:08:45;12.2;73.1
78516;SHT31;67815;51.990;5.688;2023-04-16T09:11:18;12.2;72.8
78516;SHT31;67815;51.990;5.688;2023-04-16T09:13:48;12.2;72.5
78516;SHT31;67815;51.990;5.688;2023-04-16T09:16:19;12.3;72.5
78516;SHT31;67815;51.990;5.688;2023-04-16T09:18:51;12.3;72.0
78516;SHT31;67815;51.990;5.688;2023-04-16T09:21:20;12.3;71.9
78516;SHT31;67815;51.990;5.688;2023-04-16T09:23:53;12.3;72.2
78516;SHT31;67815;51.990;5.688;2023-04-16T09:26:23;12.3;72.1
78516;SHT31;67815;51.990;5.688;2023-04-16T09:28:54;12.3;72.1
78516;SHT31;67815;51.990;5.688;2023-04-16T09:31:23;12.4;72.2
78516;SHT31;67815;51.990;5.688;2023-04-16T09:34:05;12.4;71.8
78516;SHT31;67815;51.990;5.688;2023-04-16T09:36:35;12.4;72.2
78516;SHT31;67815;51.990;5.688;2023-04-16T09:39:05;12.4;71.6
78516;SHT31;67815;51.990;5.688;2023-04-16T09:41:35;12.5;71.4
78516;SHT31;67815;51.990;5.688;2023-04-16T09:44:06;12.5;71.6
78516;SHT31;67815;51.990;5.688;2023-04-16T09:46:40;12.5;71.4
78516;SHT31;67815;51.990;5.688;2023-04-16T09:49:13;12.5;71.1
78516;SHT31;67815;51.990;5.688;2023-04-16T09:51:46;12.5;70.9
78516;SHT31;67815;51.990;5.688;2023-04-16T09:54:19;12.6;70.9
78516;SHT31;67815;51.990;5.688;2023-04-16T09:56:49;12.6;71.1
78516;SHT31;67815;51.990;5.688;2023-04-16T09:59:19;12.6;71.0
78516;SHT31;67815;51.990;5.688;2023-04-16T10:01:50;12.6;71.6
78516;SHT31;67815;51.990;5.688;2023-04-16T10:04:20;12.6;70.9
78516;SHT31;67815;51.990;5.688;2023-04-16T10:07:04;12.6;71.0
78516;SHT31;67815;51.990;5.688;2023-04-16T10:09:39;12.6;71.5
78516;SHT31;67815;51.990;5.688;2023-04-16T10:12:09;12.7;71.6
78516;SHT31;67815;51.990;5.688;2023-04-16T10:14:40;12.7;71.5
78516;SHT31;67815;51.990;5.688;2023-04-16T10:17:11;12.7;71.1
78516;SHT31;67815;51.990;5.688;2023-04-16T10:19:41;12.8;70.5
78516;SHT31;67815;51.990;5.688;2023-04-16T10:22:12;12.8;70.4
78516;SHT31;67815;51.990;5.688;2023-04-16T10:24:42;12.9;70.4
78516;SHT31;67815;51.990;5.688;2023-04-16T10:27:15;12.9;70.1
78516;SHT31;67815;51.990;5.688;2023-04-16T10:29:45;12.9;70.3
78516;SHT31;67815;51.990;5.688;2023-04-16T10:32:16;13.0;70.7
78516;SHT31;67815;51.990;5.688;2023-04-16T10:34:48;13.0;69.8
78516;SHT31;67815;51.990;5.688;2023-04-16T10:37:18;13.1;69.4
78516;SHT31;67815;51.990;5.688;2023-04-16T10:39:51;13.1;68.9
78516;SHT31;67815;51.990;5.688;2023-04-16T10:42:21;13.2;69.2
78516;SHT31;67815;51.990;5.688;2023-04-16T10:44:50;13.2;69.4
78516;SHT31;67815;51.990;5.688;2023-04-16T10:47:23;13.2;69.1
78516;SHT31;67815;51.990;5.688;2023-04-16T10:49:53;13.3;68.0
78516;SHT31;67815;51.990;5.688;2023-04-16T10:52:23;13.3;67.7
78516;SHT31;67815;51.990;5.688;2023-04-16T10:54:53;13.3;68.6
78516;SHT31;67815;51.990;5.688;2023-04-16T10:57:28;13.4;68.4
78516;SHT31;67815;51.990;5.688;2023-04-16T10:59:58;13.4;68.1
78516;SHT31;67815;51.990;5.688;2023-04-16T11:02:29;13.4;68.6
78516;SHT31;67815;51.990;5.688;2023-04-16T11:05:01;13.4;67.9
78516;SHT31;67815;51.990;5.688;2023-04-16T11:07:33;13.5;68.3
78516;SHT31;67815;51.990;5.688;2023-04-16T11:10:13;13.5;67.6
78516;SHT31;67815;51.990;5.688;2023-04-16T11:12:45;13.5;67.8
78516;SHT31;67815;51.990;5.688;2023-04-16T11:15:16;13.5;67.7
78516;SHT31;67815;51.990;5.688;2023-04-16T11:17:50;13.6;68.2
78516;SHT31;67815;51.990;5.688;2023-04-16T11:20:23;13.6;67.2
78516;SHT31;67815;51.990;5.688;2023-04-16T11:22:55;13.6;67.1
78516;SHT31;67815;51.990;5.688;2023-04-16T11:25:26;13.6;66.9
78516;SHT31;67815;51.990;5.688;2023-04-16T11:27:58;13.6;67.9
78516;SHT31;67815;51.990;5.688;2023-04-16T11:30:30;13.6;67.2
78516;SHT31;67815;51.990;5.688;2023-04-16T11:33:01;13.6;67.1
78516;SHT31;67815;51.990;5.688;2023-04-16T11:35:31;13.6;66.9
78516;SHT31;67815;51.990;5.688;2023-04-16T11:38:00;13.7;67.9
78516;SHT31;67815;51.990;5.688;2023-04-16T11:40:33;13.7;68.4
78516;SHT31;67815;51.990;5.688;2023-04-16T11:43:13;13.7;67.7
78516;SHT31;67815;51.990;5.688;2023-04-16T11:45:56;13.7;67.6
78516;SHT31;67815;51.990;5.688;2023-04-16T11:48:52;13.7;68.3
78516;SHT31;67815;51.990;5.688;2023-04-16T11:51:22;13.7;66.7
78516;SHT31;67815;51.990;5.688;2023-04-16T11:53:53;13.8;66.7
78516;SHT31;67815;51.990;5.688;2023-04-16T11:56:30;13.8;66.4
78516;SHT31;67815;51.990;5.688;2023-04-16T11:59:07;13.8;66.6
78516;SHT31;67815;51.990;5.688;2023-04-16T12:01:38;13.8;67.5
78516;SHT31;67815;51.990;5.688;2023-04-16T12:04:08;13.8;66.8
78516;SHT31;67815;51.990;5.688;2023-04-16T12:06:38;13.8;66.7
78516;SHT31;67815;51.990;5.688;2023-04-16T12:09:25;13.8;66.6
78516;SHT31;67815;51.990;5.688;2023-04-16T12:11:57;13.8;67.0
78516;SHT31;67815;51.990;5.688;2023-04-16T12:14:30;13.8;66.9
78516;SHT31;67815;51.990;5.688;2023-04-16T12:17:17;13.8;66.9
78516;SHT31;67815;51.990;5.688;2023-04-16T12:19:54;13.8;66.7
78516;SHT31;67815;51.990;5.688;2023-04-16T12:22:28;13.8;67.1
78516;SHT31;67815;51.990;5.688;2023-04-16T12:25:02;13.8;67.0
78516;SHT31;67815;51.990;5.688;2023-04-16T12:27:44;13.7;67.3
78516;SHT31;67815;51.990;5.688;2023-04-16T12:30:17;13.7;67.2
78516;SHT31;67815;51.990;5.688;2023-04-16T12:32:50;13.7;67.2
78516;SHT31;67815;51.990;5.688;2023-04-16T12:35:33;13.7;67.4
78516;SHT31;67815;51.990;5.688;2023-04-16T12:38:02;13.7;67.7
78516;SHT31;67815;51.990;5.688;2023-04-16T12:40:33;13.7;67.4
78516;SHT31;67815;51.990;5.688;2023-04-16T12:43:02;13.7;67.8
78516;SHT31;67815;51.990;5.688;2023-04-16T12:45:32;13.7;68.1
78516;SHT31;67815;51.990;5.688;2023-04-16T12:48:02;13.7;68.2
78516;SHT31;67815;51.990;5.688;2023-04-16T12:50:32;13.7;68.0
78516;SHT31;67815;51.990;5.688;2023-04-16T12:53:05;13.7;67.9
78516;SHT31;67815;51.990;5.688;2023-04-16T12:55:35;13.7;67.9
78516;SHT31;67815;51.990;5.688;2023-04-16T12:58:04;13.7;68.3
78516;SHT31;67815;51.990;5.688;2023-04-16T13:00:34;13.7;67.3
78516;SHT31;67815;51.990;5.688;2023-04-16T13:03:03;13.7;67.8
78516;SHT31;67815;51.990;5.688;2023-04-16T13:05:33;13.7;67.4
78516;SHT31;67815;51.990;5.688;2023-04-16T13:08:04;13.7;67.1
78516;SHT31;67815;51.990;5.688;2023-04-16T13:10:33;13.7;67.1
78516;SHT31;67815;51.990;5.688;2023-04-16T13:13:04;13.7;67.0
78516;SHT31;67815;51.990;5.688;2023-04-16T13:15:34;13.7;66.5
78516;SHT31;67815;51.990;5.688;2023-04-16T13:18:03;13.7;67.3
78516;SHT31;67815;51.990;5.688;2023-04-16T13:20:34;13.7;67.4
78516;SHT31;67815;51.990;5.688;2023-04-16T13:23:04;13.7;67.2
78516;SHT31;67815;51.990;5.688;2023-04-16T13:25:34;13.7;68.6
78516;SHT31;67815;51.990;5.688;2023-04-16T13:28:03;13.7;68.1
78516;SHT31;67815;51.990;5.688;2023-04-16T13:30:33;13.8;67.4
78516;SHT31;67815;51.990;5.688;2023-04-16T13:33:05;13.8;67.4
78516;SHT31;67815;51.990;5.688;2023-04-16T13:35:34;13.9;66.4
78516;SHT31;67815;51.990;5.688;2023-04-16T13:38:04;13.9;66.2
78516;SHT31;67815;51.990;5.688;2023-04-16T13:40:34;13.9;66.5
78516;SHT31;67815;51.990;5.688;2023-04-16T13:43:03;13.9;66.9
78516;SHT31;67815;51.990;5.688;2023-04-16T13:45:33;13.9;66.7
78516;SHT31;67815;51.990;5.688;2023-04-16T13:48:03;14.0;66.3
78516;SHT31;67815;51.990;5.688;2023-04-16T13:50:33;14.0;66.5
78516;SHT31;67815;51.990;5.688;2023-04-16T13:53:03;14.0;66.5
78516;SHT31;67815;51.990;5.688;2023-04-16T13:55:35;14.0;66.1
78516;SHT31;67815;51.990;5.688;2023-04-16T13:58:05;14.0;67.0
78516;SHT31;67815;51.990;5.688;2023-04-16T14:00:37;14.0;66.0
78516;SHT31;67815;51.990;5.688;2023-04-16T14:03:07;14.1;66.6
78516;SHT31;67815;51.990;5.688;2023-04-16T14:05:37;14.1;66.6
78516;SHT31;67815;51.990;5.688;2023-04-16T14:08:07;14.1;65.4
78516;SHT31;67815;51.990;5.688;2023-04-16T14:10:41;14.1;65.6
78516;SHT31;67815;51.990;5.688;2023-04-16T14:13:10;14.1;65.8
78516;SHT31;67815;51.990;5.688;2023-04-16T14:15:40;14.1;65.3
78516;SHT31;67815;51.990;5.688;2023-04-16T14:18:10;14.1;65.2
78516;SHT31;67815;51.990;5.688;2023-04-16T14:20:39;14.1;65.0
78516;SHT31;67815;51.990;5.688;2023-04-16T14:23:09;14.1;65.5
78516;SHT31;67815;51.990;5.688;2023-04-16T14:25:39;14.1;65.1
78516;SHT31;67815;51.990;5.688;2023-04-16T14:28:11;14.1;65.2
78516;SHT31;67815;51.990;5.688;2023-04-16T14:30:40;14.1;65.4
78516;SHT31;67815;51.990;5.688;2023-04-16T14:33:10;14.1;65.1
78516;SHT31;67815;51.990;5.688;2023-04-16T14:35:40;14.0;65.5
78516;SHT31;67815;51.990;5.688;2023-04-16T14:38:10;14.0;65.6
78516;SHT31;67815;51.990;5.688;2023-04-16T14:40:39;14.0;65.9
78516;SHT31;67815;51.990;5.688;2023-04-16T14:43:09;14.0;66.6
78516;SHT31;67815;51.990;5.688;2023-04-16T14:45:38;14.0;65.8
78516;SHT31;67815;51.990;5.688;2023-04-16T14:48:10;14.0;65.7
78516;SHT31;67815;51.990;5.688;2023-04-16T14:50:41;14.0;65.8
78516;SHT31;67815;51.990;5.688;2023-04-16T14:53:12;14.0;66.3
78516;SHT31;67815;51.990;5.688;2023-04-16T14:55:42;14.0;66.3
78516;SHT31;67815;51.990;5.688;2023-04-16T14:58:12;14.0;65.9
78516;SHT31;67815;51.990;5.688;2023-04-16T15:00:42;14.1;65.4
78516;SHT31;67815;51.990;5.688;2023-04-16T15:03:12;14.1;65.3
78516;SHT31;67815;51.990;5.688;2023-04-16T15:05:42;14.1;64.8
78516;SHT31;67815;51.990;5.688;2023-04-16T15:08:13;14.1;65.1
78516;SHT31;67815;51.990;5.688;2023-04-16T15:10:43;14.1;64.9
78516;SHT31;67815;51.990;5.688;2023-04-16T15:13:12;14.1;64.5
78516;SHT31;67815;51.990;5.688;2023-04-16T15:15:42;14.1;64.8
78516;SHT31;67815;51.990;5.688;2023-04-16T15:18:12;14.1;65.3
78516;SHT31;67815;51.990;5.688;2023-04-16T15:20:43;14.1;65.3
78516;SHT31;67815;51.990;5.688;2023-04-16T15:23:13;14.1;64.8
78516;SHT31;67815;51.990;5.688;2023-04-16T15:25:42;14.1;64.7
78516;SHT31;67815;51.990;5.688;2023-04-16T15:28:12;14.0;64.9
78516;SHT31;67815;51.990;5.688;2023-04-16T15:30:41;14.0;65.1
78516;SHT31;67815;51.990;5.688;2023-04-16T15:33:11;14.0;65.2
78516;SHT31;67815;51.990;5.688;2023-04-16T15:35:42;13.9;65.7
78516;SHT31;67815;51.990;5.688;2023-04-16T15:38:12;13.9;66.1
78516;SHT31;67815;51.990;5.688;2023-04-16T15:40:42;13.9;66.2
78516;SHT31;67815;51.990;5.688;2023-04-16T15:43:14;13.9;66.4
78516;SHT31;67815;51.990;5.688;2023-04-16T15:45:43;13.9;65.9
78516;SHT31;67815;51.990;5.688;2023-04-16T15:48:13;13.9;65.9
78516;SHT31;67815;51.990;5.688;2023-04-16T15:50:42;13.9;66.2
78516;SHT31;67815;51.990;5.688;2023-04-16T15:53:13;13.9;66.3
78516;SHT31;67815;51.990;5.688;2023-04-16T15:55:43;13.9;66.3
78516;SHT31;67815;51.990;5.688;2023-04-16T15:58:13;13.9;66.1
78516;SHT31;67815;51.990;5.688;2023-04-16T16:00:43;13.9;66.6
78516;SHT31;67815;51.990;5.688;2023-04-16T16:03:16;13.9;66.0
78516;SHT31;67815;51.990;5.688;2023-04-16T16:05:47;13.9;66.1
78516;SHT31;67815;51.990;5.688;2023-04-16T16:08:17;13.9;66.9
78516;SHT31;67815;51.990;5.688;2023-04-16T16:10:46;13.9;67.3
78516;SHT31;67815;51.990;5.688;2023-04-16T16:13:16;13.9;66.7
78516;SHT31;67815;51.990;5.688;2023-04-16T16:15:46;13.9;66.6
78516;SHT31;67815;51.990;5.688;2023-04-16T16:18:19;14.0;66.2
78516;SHT31;67815;51.990;5.688;2023-04-16T16:20:49;14.0;65.7
78516;SHT31;67815;51.990;5.688;2023-04-16T16:23:20;14.0;65.4